Time;durP1;ratioP1;P1;durP2;ratioP2;P2;SDS_P1;SDS_P2;PMS_P1;PMS_P2;Temp;Humidity;BMP_temperature;BMP_pressure;BME280_temperature;BME280_humidity;BME280_pressure;Samples;Min_cycle;Max_cycle;Signal;HPM_P1;HPM_P2
2021/04/23 00:02:07;;;;;;;16.42;12.50;;;;;;;11.43;77.30;99555.98;1727041;81;21078;-69
2021/04/23 00:04:34;;;;;;;14.68;12.50;;;;;;;11.44;76.96;99560.31;1762855;81;21193;-74
2021/04/23 00:07:03;;;;;;;13.65;12.40;;;;;;;11.43;76.59;99560.03;1755026;81;21210;-72
2021/04/23 00:09:34;;;;;;;14.20;12.70;;;;;;;11.46;76.37;99568.14;1685176;82;21252;-70
2021/04/23 00:12:10;;;;;;;15.32;12.58;;;;;;;11.46;76.18;99568.95;1729277;81;21061;-69
2021/04/23 00:14:45;;;;;;;16.60;14.78;;;;;;;11.49;76.12;99562.23;1743471;82;21151;-69
2021/04/23 00:17:14;;;;;;;15.28;13.68;;;;;;;11.54;76.00;99557.70;1697601;82;21137;-68
2021/04/23 00:19:45;;;;;;;15.13;12.60;;;;;;;11.57;75.76;99559.04;1679248;85;21197;-70
2021/04/23 00:22:13;;;;;;;16.30;14.53;;;;;;;11.59;75.62;99564.46;1682886;84;21537;-68
2021/04/23 00:24:40;;;;;;;13.55;12.13;;;;;;;11.63;75.45;99570.95;1712669;81;21192;-68
2021/04/23 00:27:08;;;;;;;16.60;14.90;;;;;;;11.64;75.09;99567.19;1701024;81;21582;-66
2021/04/23 00:29:36;;;;;;;18.05;14.73;;;;;;;11.67;74.93;99572.58;1730811;82;21196;-66
2021/04/23 00:34:54;;;;;;;17.57;15.72;;;;;;;11.74;74.92;99555.70;1695380;84;21233;-66
2021/04/23 00:37:21;;;;;;;24.52;19.10;;;;;;;11.80;74.82;99548.71;1678441;84;21245;-66
2021/04/23 00:39:48;;;;;;;20.75;16.02;;;;;;;11.75;75.66;99545.98;1689585;81;21261;-66
2021/04/23 00:42:16;;;;;;;16.48;14.78;;;;;;;11.77;76.24;99547.08;1709163;82;21189;-65
2021/04/23 00:44:44;;;;;;;22.05;17.67;;;;;;;11.81;75.87;99548.18;1758255;81;21216;-67
2021/04/23 00:47:11;;;;;;;19.25;17.35;;;;;;;11.84;75.83;99557.11;1707834;81;21061;-67
2021/04/23 00:49:39;;;;;;;16.02;14.40;;;;;;;11.78;75.70;99559.48;1703050;84;21664;-67
2021/04/23 00:52:08;;;;;;;17.20;15.50;;;;;;;11.71;75.84;99561.02;1727538;81;21039;-67
2021/04/23 00:54:35;;;;;;;16.65;14.40;;;;;;;11.66;75.80;99562.34;1708984;82;21486;-65
2021/04/23 00:57:05;;;;;;;20.77;16.60;;;;;;;11.61;76.01;99554.75;1702762;84;21371;-67
2021/04/23 00:59:33;;;;;;;19.15;16.90;;;;;;;11.60;76.35;99565.28;1725778;82;21065;-67
2021/04/23 01:02:07;;;;;;;17.45;15.40;;;;;;;11.59;76.68;99569.03;1735199;81;21126;-66
2021/04/23 01:04:36;;;;;;;19.00;16.82;;;;;;;11.57;77.09;99580.59;1737447;81;21625;-66
2021/04/23 01:07:04;;;;;;;21.42;19.12;;;;;;;11.51;77.53;99586.47;1707284;82;21165;-66
2021/04/23 01:09:33;;;;;;;20.30;17.98;;;;;;;11.44;78.24;99600.70;1732654;82;22608;-67
2021/04/23 01:12:04;;;;;;;21.68;18.52;;;;;;;11.32;78.84;99614.33;1733650;81;21158;-67
2021/04/23 01:14:32;;;;;;;20.72;18.62;;;;;;;11.19;79.72;99609.38;1762982;81;21614;-68
2021/04/23 01:17:00;;;;;;;23.07;19.77;;;;;;;11.04;80.50;99606.54;1733065;81;21190;-66
2021/04/23 01:19:28;;;;;;;21.57;18.30;;;;;;;10.92;81.17;99605.37;1732642;81;21666;-66
2021/04/23 01:21:56;;;;;;;22.85;17.02;;;;;;;10.85;81.76;99603.40;1712112;82;21750;-67
2021/04/23 01:24:24;;;;;;;21.45;19.25;;;;;;;10.76;82.23;99599.54;1741126;81;21040;-68
2021/04/23 01:26:53;;;;;;;18.57;16.27;;;;;;;10.70;82.69;99593.00;1725472;82;21285;-69
2021/04/23 01:29:23;;;;;;;24.90;19.67;;;;;;;10.63;83.08;99592.41;1739327;81;21191;-72
2021/04/23 01:31:54;;;;;;;22.70;18.70;;;;;;;10.54;83.52;99588.02;1754691;81;21615;-67
2021/04/23 01:34:27;;;;;;;20.25;17.82;;;;;;;10.50;84.04;99584.99;1695427;83;22020;-66
2021/04/23 01:36:55;;;;;;;18.65;16.80;;;;;;;10.50;84.46;99586.34;1731732;81;21194;-68
2021/04/23 01:39:26;;;;;;;23.02;18.42;;;;;;;10.52;84.75;99575.34;1761119;81;21202;-68
2021/04/23 01:41:57;;;;;;;18.95;16.77;;;;;;;10.54;85.03;99577.78;1717782;83;21135;-67
2021/04/23 01:44:24;;;;;;;21.10;15.90;;;;;;;10.53;85.31;99589.59;1705670;82;21166;-66
2021/04/23 01:46:53;;;;;;;17.30;15.50;;;;;;;10.49;85.51;99587.42;1727584;82;21428;-66
2021/04/23 01:49:22;;;;;;;17.17;15.38;;;;;;;10.46;85.83;99583.88;1702066;83;21182;-67
2021/04/23 01:51:54;;;;;;;17.65;15.85;;;;;;;10.43;86.26;99588.42;1677251;84;21043;-67
2021/04/23 01:54:23;;;;;;;23.83;16.97;;;;;;;10.39;86.53;99589.99;1733229;82;21560;-69
2021/04/23 01:56:52;;;;;;;19.52;17.45;;;;;;;10.35;87.07;99594.78;1694218;83;21650;-66
2021/04/23 01:59:21;;;;;;;21.00;18.30;;;;;;;10.28;87.38;99588.77;1733245;82;22241;-66
2021/04/23 02:01:49;;;;;;;20.80;18.25;;;;;;;10.22;87.52;99597.29;1682632;83;21575;-67
2021/04/23 02:04:19;;;;;;;18.23;16.23;;;;;;;10.19;87.92;99584.89;1704749;82;21183;-67
2021/04/23 02:06:50;;;;;;;20.55;18.37;;;;;;;10.17;88.28;99584.34;1683932;84;21063;-66
2021/04/23 02:09:18;;;;;;;18.90;16.62;;;;;;;10.14;88.66;99585.61;1675935;84;21210;-67
2021/04/23 02:11:47;;;;;;;20.32;17.87;;;;;;;10.09;89.02;99585.54;1704881;82;21946;-68
2021/04/23 02:14:16;;;;;;;21.35;18.45;;;;;;;10.05;89.33;99591.95;1724204;83;21154;-67
2021/04/23 02:16:44;;;;;;;18.73;16.23;;;;;;;10.04;89.67;99594.88;1697966;83;21069;-68
2021/04/23 02:19:13;;;;;;;19.20;17.15;;;;;;;10.02;90.03;99593.77;1702323;84;21246;-67
2021/04/23 02:21:41;;;;;;;18.52;16.42;;;;;;;10.02;90.33;99595.11;1723410;81;21558;-67
2021/04/23 02:24:10;;;;;;;21.12;18.35;;;;;;;10.01;90.63;99598.08;1702704;82;21255;-69
2021/04/23 02:26:38;;;;;;;18.98;16.80;;;;;;;9.96;90.93;99607.41;1674454;83;21141;-68
2021/04/23 02:29:09;;;;;;;17.77;14.33;;;;;;;9.93;91.16;99608.70;1684651;81;21051;-65
2021/04/23 02:31:43;;;;;;;17.23;15.48;;;;;;;9.94;91.52;99605.48;1703601;82;21033;-68
2021/04/23 02:34:12;;;;;;;19.77;17.37;;;;;;;9.91;91.72;99614.86;1676436;84;21183;-69
2021/04/23 02:36:40;;;;;;;15.75;14.05;;;;;;;9.91;91.97;99616.73;1702683;84;21269;-67
2021/04/23 02:39:12;;;;;;;15.15;13.50;;;;;;;9.89;92.19;99623.69;1753847;81;21252;-67
2021/04/23 02:41:43;;;;;;;14.50;13.07;;;;;;;9.83;92.73;99630.59;1709116;83;21037;-68
2021/04/23 02:44:11;;;;;;;14.60;12.60;;;;;;;9.76;92.82;99650.08;1706715;81;21165;-68
2021/04/23 02:46:41;;;;;;;12.28;10.95;;;;;;;9.71;92.74;99651.34;1703452;82;21173;-70
2021/04/23 02:49:08;;;;;;;14.83;9.80;;;;;;;9.63;92.04;99652.58;1723052;81;21146;-68
2021/04/23 02:51:41;;;;;;;9.60;8.30;;;;;;;9.43;89.68;99681.24;1734164;81;21669;-67
2021/04/23 02:54:09;;;;;;;11.90;9.28;;;;;;;9.29;88.94;99654.43;1706991;82;21203;-67
2021/04/23 02:56:38;;;;;;;9.10;8.20;;;;;;;9.24;89.30;99659.70;1735220;81;21148;-68
2021/04/23 02:59:06;;;;;;;7.50;6.78;;;;;;;9.14;88.87;99673.75;1714040;82;21216;-68
2021/04/23 03:01:39;;;;;;;7.95;7.25;;;;;;;9.01;86.88;99701.41;1717579;82;23610;-68
2021/04/23 03:04:08;;;;;;;6.25;5.67;;;;;;;8.88;85.92;99684.23;1731677;82;21145;-68
2021/04/23 03:06:35;;;;;;;7.92;6.12;;;;;;;8.73;85.29;99714.23;1704384;82;21169;-66
2021/04/23 03:09:06;;;;;;;7.30;6.42;;;;;;;8.63;85.38;99714.05;1721400;83;21186;-66
2021/04/23 03:11:35;;;;;;;8.15;6.20;;;;;;;8.51;84.46;99707.36;1695162;83;21584;-66
2021/04/23 03:14:03;;;;;;;7.72;5.75;;;;;;;8.36;82.58;99692.29;1631414;85;21201;-68
2021/04/23 03:16:31;;;;;;;6.70;5.10;;;;;;;8.22;82.76;99719.01;1647813;86;21227;-67
2021/04/23 03:18:58;;;;;;;6.00;5.20;;;;;;;8.08;81.76;99729.15;1648047;87;21197;-69
2021/04/23 03:21:28;;;;;;;9.05;5.75;;;;;;;8.00;82.19;99717.97;1657765;83;21198;-67
2021/04/23 03:23:56;;;;;;;7.58;4.90;;;;;;;7.96;82.00;99710.12;1675637;83;21169;-69
2021/04/23 03:26:24;;;;;;;9.35;5.00;;;;;;;7.89;81.64;99716.39;1688564;83;21191;-68
2021/04/23 03:28:53;;;;;;;5.50;4.92;;;;;;;7.82;81.35;99741.11;1713245;83;21157;-68
2021/04/23 03:31:21;;;;;;;8.30;4.55;;;;;;;7.71;81.02;99736.56;1668687;83;21167;-68
2021/04/23 03:33:49;;;;;;;5.55;4.90;;;;;;;7.65;81.09;99739.34;1681350;84;21173;-68
2021/04/23 03:36:16;;;;;;;7.72;5.60;;;;;;;7.61;80.89;99759.58;1659083;84;21184;-68
2021/04/23 03:38:46;;;;;;;9.13;6.37;;;;;;;7.53;80.60;99758.02;1632415;87;21193;-67
2021/04/23 03:41:18;;;;;;;7.72;5.28;;;;;;;7.49;81.03;99753.36;1647871;86;21152;-66
2021/04/23 03:43:46;;;;;;;5.08;4.30;;;;;;;7.41;80.82;99752.66;1676547;83;21232;-68
2021/04/23 03:46:13;;;;;;;5.65;4.97;;;;;;;7.36;81.31;99757.05;1609811;87;21199;-68
2021/04/23 03:48:43;;;;;;;7.92;5.20;;;;;;;7.33;81.85;99757.52;1647919;86;21165;-68
2021/04/23 03:51:13;;;;;;;7.12;4.85;;;;;;;7.29;82.67;99757.68;1647962;86;22068;-67
2021/04/23 03:53:41;;;;;;;8.23;5.90;;;;;;;7.23;83.07;99778.12;1709296;83;21170;-68
2021/04/23 03:56:11;;;;;;;5.72;4.55;;;;;;;7.17;82.99;99774.19;1665984;84;22219;-66
2021/04/23 03:58:39;;;;;;;5.50;4.92;;;;;;;7.14;83.30;99758.59;1666017;84;21474;-68
2021/04/23 04:01:11;;;;;;;9.20;5.05;;;;;;;7.14;83.51;99762.09;1684107;84;21132;-67
2021/04/23 04:03:39;;;;;;;6.33;4.75;;;;;;;7.13;83.43;99768.48;1663206;84;22007;-68
2021/04/23 04:06:07;;;;;;;7.62;5.33;;;;;;;7.11;83.22;99787.93;1690361;84;21150;-67
2021/04/23 04:08:35;;;;;;;12.98;5.90;;;;;;;7.08;82.87;99775.02;1690298;84;21094;-66
2021/04/23 04:11:04;;;;;;;6.92;4.58;;;;;;;7.02;82.53;99789.28;1689208;83;21153;-69
2021/04/23 04:13:34;;;;;;;5.20;3.80;;;;;;;6.93;81.40;99809.34;1724730;81;21626;-66
2021/04/23 04:16:03;;;;;;;4.60;4.17;;;;;;;6.90;81.15;99787.89;1699107;83;21772;-68
2021/04/23 04:18:31;;;;;;;5.50;4.37;;;;;;;6.89;81.10;99792.12;1699869;83;21637;-69
2021/04/23 04:20:59;;;;;;;5.00;4.12;;;;;;;6.85;80.95;99792.27;1699739;83;21196;-69
2021/04/23 04:23:27;;;;;;;6.75;3.77;;;;;;;6.81;81.33;99801.23;1718649;81;21051;-67
2021/04/23 04:25:57;;;;;;;6.00;4.20;;;;;;;6.78;81.62;99806.22;1715417;82;21662;-67
2021/04/23 04:28:26;;;;;;;5.92;3.80;;;;;;;6.72;82.04;99815.93;1706688;84;21184;-68
2021/04/23 04:30:54;;;;;;;6.20;4.55;;;;;;;6.70;82.40;99801.99;1732578;81;21055;-70
2021/04/23 04:33:23;;;;;;;8.53;5.17;;;;;;;6.68;83.01;99816.08;1676307;82;21181;-69
2021/04/23 04:35:51;;;;;;;4.78;4.08;;;;;;;6.63;83.35;99811.92;1736596;81;21381;-68
2021/04/23 04:38:18;;;;;;;6.53;4.05;;;;;;;6.54;84.02;99814.06;1762606;81;21178;-67
2021/04/23 04:40:48;;;;;;;7.00;3.80;;;;;;;6.49;84.74;99825.93;1762078;81;22594;-70
2021/04/23 04:43:17;;;;;;;6.75;3.85;;;;;;;6.45;85.64;99819.91;1735624;82;21188;-71
2021/04/23 04:45:45;;;;;;;5.95;4.62;;;;;;;6.41;86.67;99822.73;1710430;83;21030;-68
2021/04/23 04:48:15;;;;;;;12.20;4.95;;;;;;;6.37;87.13;99814.34;1710383;83;21089;-69
2021/04/23 04:50:50;;;;;;;7.55;4.60;;;;;;;6.32;88.01;99818.70;1692578;84;21225;-69
2021/04/23 04:53:18;;;;;;;6.95;4.65;;;;;;;6.27;88.49;99817.20;1720920;81;21233;-69
2021/04/23 04:55:49;;;;;;;5.50;4.70;;;;;;;6.22;89.39;99819.71;1719308;81;21237;-68
2021/04/23 04:58:20;;;;;;;6.08;4.35;;;;;;;6.14;89.83;99818.94;1705095;82;21209;-69
2021/04/23 05:00:47;;;;;;;7.67;6.28;;;;;;;6.14;90.42;99814.92;1724260;83;21138;-68
2021/04/23 05:03:16;;;;;;;9.10;4.58;;;;;;;6.14;91.05;99822.94;1731809;82;21193;-68
2021/04/23 05:05:45;;;;;;;9.78;5.22;;;;;;;6.12;91.45;99821.02;1745381;81;21280;-70
2021/04/23 05:08:12;;;;;;;4.50;3.65;;;;;;;6.13;91.80;99824.52;1761982;81;21201;-69
2021/04/23 05:10:40;;;;;;;7.87;4.75;;;;;;;6.12;92.30;99826.88;1705496;82;21584;-71
2021/04/23 05:13:08;;;;;;;4.70;3.83;;;;;;;6.10;92.54;99827.09;1704138;83;21181;-69
2021/04/23 05:15:37;;;;;;;7.00;4.67;;;;;;;6.11;93.07;99830.58;1727813;82;21180;-70
2021/04/23 05:18:04;;;;;;;6.08;5.30;;;;;;;6.10;93.25;99820.41;1691441;82;22024;-72
2021/04/23 05:20:34;;;;;;;5.95;4.53;;;;;;;6.08;93.54;99823.01;1689310;84;21197;-71
2021/04/23 05:23:02;;;;;;;6.70;4.83;;;;;;;6.11;93.67;99819.38;1668029;84;21605;-70
2021/04/23 05:25:30;;;;;;;8.15;6.90;;;;;;;6.14;94.04;99826.13;1695543;84;21188;-70
2021/04/23 05:27:58;;;;;;;7.55;4.60;;;;;;;6.16;94.08;99817.91;1716334;83;21127;-72
2021/04/23 05:30:29;;;;;;;4.22;3.62;;;;;;;6.20;94.19;99832.45;1662024;84;21212;-71
2021/04/23 05:32:57;;;;;;;9.05;5.40;;;;;;;6.23;94.19;99821.35;1668083;84;21493;-72
2021/04/23 05:35:28;;;;;;;13.53;5.17;;;;;;;6.25;94.03;99828.09;1671558;85;21197;-71
2021/04/23 05:37:56;;;;;;;7.53;4.30;;;;;;;6.29;94.10;99832.47;1688588;84;21146;-73
2021/04/23 05:40:37;;;;;;;7.22;4.30;;;;;;;6.35;94.16;99824.41;1701915;84;21038;-73
2021/04/23 05:43:05;;;;;;;7.20;4.45;;;;;;;6.37;93.79;99830.38;1700204;84;23038;-71
2021/04/23 05:45:35;;;;;;;6.92;5.25;;;;;;;6.42;93.79;99831.05;1701485;84;21034;-72
2021/04/23 05:48:03;;;;;;;7.22;4.37;;;;;;;6.46;93.85;99828.23;1711948;82;21169;-72
2021/04/23 05:50:30;;;;;;;12.10;4.50;;;;;;;6.51;93.79;99833.73;1644558;84;21220;-71
2021/04/23 05:52:59;;;;;;;5.62;4.80;;;;;;;6.53;93.67;99832.98;1671638;85;21197;-70
2021/04/23 05:55:26;;;;;;;8.93;4.47;;;;;;;6.57;93.52;99836.84;1671798;85;22186;-71
2021/04/23 05:57:57;;;;;;;5.17;4.12;;;;;;;6.60;93.44;99840.43;1675818;84;21197;-74
2021/04/23 06:00:27;;;;;;;7.78;4.55;;;;;;;6.65;93.09;99840.59;1673489;84;21152;-73
2021/04/23 06:02:55;;;;;;;5.50;4.25;;;;;;;6.67;92.79;99837.67;1661355;84;21150;-70
2021/04/23 06:05:27;;;;;;;8.60;4.12;;;;;;;6.71;92.70;99832.20;1701801;84;21527;-71
2021/04/23 06:07:58;;;;;;;7.83;4.95;;;;;;;6.76;92.49;99832.37;1683041;84;21328;-71
2021/04/23 06:10:26;;;;;;;7.35;5.37;;;;;;;6.78;92.10;99837.77;1674280;85;21172;-72
2021/04/23 06:12:54;;;;;;;6.60;4.00;;;;;;;6.85;92.07;99831.03;1650878;85;21046;-71
2021/04/23 06:15:23;;;;;;;7.78;5.53;;;;;;;6.94;91.90;99844.40;1710552;83;21030;-72
2021/04/23 06:17:54;;;;;;;7.95;5.85;;;;;;;6.96;90.87;99842.30;1721967;81;21169;-70
2021/04/23 06:20:26;;;;;;;8.85;4.33;;;;;;;7.01;90.99;99844.61;1762626;81;21575;-72
2021/04/23 06:22:54;;;;;;;5.78;4.03;;;;;;;7.08;91.03;99835.19;1687414;84;21200;-70
2021/04/23 06:25:22;;;;;;;5.80;4.05;;;;;;;7.19;90.99;99847.00;1718409;82;21150;-72
2021/04/23 06:27:52;;;;;;;4.97;3.90;;;;;;;7.24;90.63;99849.28;1734502;81;21113;-71
2021/04/23 06:30:27;;;;;;;4.62;4.15;;;;;;;7.25;88.81;99851.44;1722544;81;21591;-73
2021/04/23 06:32:58;;;;;;;6.08;4.03;;;;;;;7.23;88.37;99844.99;1724268;83;21384;-72
2021/04/23 06:35:30;;;;;;;6.85;4.28;;;;;;;7.22;88.18;99845.20;1704896;82;21197;-73
2021/04/23 06:37:58;;;;;;;4.53;3.35;;;;;;;7.24;88.08;99852.50;1724958;81;21162;-71
2021/04/23 06:40:25;;;;;;;4.72;3.67;;;;;;;7.29;87.35;99855.33;1706617;84;21570;-73
2021/04/23 06:42:54;;;;;;;14.18;5.40;;;;;;;7.24;85.84;99843.14;1740061;82;21618;-74
2021/04/23 06:45:22;;;;;;;5.10;4.33;;;;;;;7.16;86.50;99858.13;1702496;84;21168;-71
2021/04/23 06:47:50;;;;;;;5.90;3.40;;;;;;;7.17;86.83;99860.59;1708062;82;21031;-73
2021/04/23 06:50:21;;;;;;;5.87;3.98;;;;;;;7.25;87.28;99864.30;1705935;82;21240;-74
2021/04/23 06:52:53;;;;;;;4.53;3.83;;;;;;;7.39;87.59;99866.28;1702390;84;21187;-73
2021/04/23 06:55:22;;;;;;;12.65;7.03;;;;;;;7.53;87.46;99870.42;1698668;84;21234;-71
2021/04/23 06:57:51;;;;;;;6.90;4.45;;;;;;;7.65;87.09;99867.81;1705838;81;22415;-71
2021/04/23 07:00:24;;;;;;;5.83;4.05;;;;;;;7.69;84.66;99868.99;1706875;82;21634;-71
2021/04/23 07:03:00;;;;;;;4.05;3.75;;;;;;;7.78;84.84;99863.09;1846421;76;28772;-72
2021/04/23 07:05:28;;;;;;;4.83;4.33;;;;;;;7.75;84.21;99864.90;1787328;79;20991;-74
2021/04/23 07:07:58;;;;;;;7.20;4.35;;;;;;;7.78;84.10;99877.82;1813641;78;21034;-72
2021/04/23 07:10:27;;;;;;;7.25;3.77;;;;;;;7.86;83.81;99860.64;1785172;80;21629;-72
2021/04/23 07:12:55;;;;;;;9.65;5.70;;;;;;;7.94;83.64;99873.69;1703965;82;21637;-71
2021/04/23 07:15:27;;;;;;;10.03;5.87;;;;;;;7.99;82.14;99868.99;1732382;82;21689;-72
2021/04/23 07:17:54;;;;;;;6.28;4.17;;;;;;;7.99;82.14;99858.28;1702325;82;21061;-72
2021/04/23 07:20:24;;;;;;;12.10;6.25;;;;;;;7.99;81.88;99867.13;1735383;81;22396;-70
2021/04/23 07:22:52;;;;;;;6.60;4.10;;;;;;;8.03;81.96;99864.28;1756296;80;21078;-71
2021/04/23 07:25:22;;;;;;;5.35;3.98;;;;;;;8.09;81.43;99874.09;1734301;82;21724;-75
2021/04/23 07:27:49;;;;;;;7.03;3.70;;;;;;;8.16;80.41;99868.62;1762346;81;21160;-72
2021/04/23 07:30:27;;;;;;;7.75;3.47;;;;;;;8.22;80.03;99871.20;1808785;79;21089;-71
2021/04/23 07:32:56;;;;;;;5.03;3.58;;;;;;;8.29;79.73;99868.43;1786903;79;22135;-74
2021/04/23 07:35:25;;;;;;;4.12;3.42;;;;;;;8.32;79.29;99877.37;1799756;78;21613;-72
2021/04/23 07:37:54;;;;;;;6.53;4.28;;;;;;;8.36;79.20;99875.86;1734664;81;21010;-70
2021/04/23 07:40:22;;;;;;;10.58;3.70;;;;;;;8.36;78.67;99875.86;1730608;82;21154;-73
2021/04/23 07:42:50;;;;;;;7.05;3.67;;;;;;;8.39;78.49;99879.44;1772355;79;21559;-70
2021/04/23 07:45:18;;;;;;;7.08;3.92;;;;;;;8.41;77.95;99870.63;1787500;79;22159;-74
2021/04/23 07:47:47;;;;;;;8.00;3.80;;;;;;;8.47;77.62;99883.62;1817684;79;21113;-72
2021/04/23 07:50:19;;;;;;;5.30;3.90;;;;;;;8.52;76.92;99887.25;1816563;78;21614;-73
2021/04/23 07:52:47;;;;;;;6.12;4.25;;;;;;;8.55;76.48;99876.58;1816890;79;21086;-72
2021/04/23 07:55:15;;;;;;;4.60;2.98;;;;;;;8.60;76.65;99890.11;1787412;79;21594;-71
2021/04/23 07:57:47;;;;;;;6.70;3.70;;;;;;;8.66;76.48;99879.80;1787499;79;21256;-69
2021/04/23 08:00:17;;;;;;;9.40;3.77;;;;;;;8.71;76.10;99885.28;1756061;80;21157;-70
2021/04/23 08:02:45;;;;;;;7.53;4.10;;;;;;;8.74;75.52;99877.58;1762428;80;21153;-71
2021/04/23 08:05:17;;;;;;;4.97;3.58;;;;;;;8.77;74.88;99873.63;1758863;81;21131;-70
2021/04/23 08:07:47;;;;;;;7.50;4.65;;;;;;;8.80;74.59;99873.67;1753289;81;21117;-70
2021/04/23 08:10:17;;;;;;;8.40;3.83;;;;;;;8.87;74.78;99869.02;1761210;80;22029;-69
2021/04/23 08:12:47;;;;;;;6.87;3.42;;;;;;;8.91;73.84;99869.66;1763639;80;21626;-71
2021/04/23 08:15:17;;;;;;;7.55;3.98;;;;;;;8.97;73.01;99870.59;1788003;80;20999;-71
2021/04/23 08:17:48;;;;;;;7.67;3.80;;;;;;;9.01;72.19;99871.75;1787902;80;21145;-70
2021/04/23 08:20:17;;;;;;;7.00;4.05;;;;;;;9.04;72.24;99864.04;1788015;80;21152;-71
2021/04/23 08:22:47;;;;;;;6.37;3.27;;;;;;;9.08;72.27;99875.11;1772933;80;21547;-69
2021/04/23 08:25:17;;;;;;;3.70;3.22;;;;;;;9.07;71.48;99886.88;1734257;82;21155;-71
2021/04/23 08:27:46;;;;;;;4.30;3.67;;;;;;;9.06;70.38;99880.73;1707958;82;21171;-71
2021/04/23 08:30:18;;;;;;;3.95;3.20;;;;;;;9.07;70.35;99893.07;1708670;82;21198;-70
2021/04/23 08:32:46;;;;;;;6.53;3.77;;;;;;;9.06;70.25;99886.09;1735125;82;21075;-71
2021/04/23 08:35:14;;;;;;;7.12;3.67;;;;;;;9.07;70.29;99893.59;1706827;82;21172;-70
2021/04/23 08:37:43;;;;;;;7.90;4.22;;;;;;;9.07;70.10;99885.02;1732665;82;21527;-70
2021/04/23 08:40:14;;;;;;;5.85;4.78;;;;;;;9.08;69.96;99890.69;1709298;82;21690;-70
2021/04/23 08:42:43;;;;;;;7.53;5.47;;;;;;;9.04;69.93;99892.20;1710047;82;21194;-70
2021/04/23 08:45:19;;;;;;;12.88;7.25;;;;;;;9.02;70.20;99896.98;1709894;82;21214;-69
2021/04/23 08:47:48;;;;;;;4.92;3.72;;;;;;;9.00;69.83;99890.23;1763197;80;21157;-69
2021/04/23 08:50:22;;;;;;;5.22;3.42;;;;;;;8.98;69.65;99885.61;1767405;80;20986;-69
2021/04/23 08:52:54;;;;;;;6.35;4.15;;;;;;;8.98;69.78;99885.61;1787915;80;21118;-71
2021/04/23 08:55:24;;;;;;;11.85;4.62;;;;;;;9.01;69.63;99892.69;1780828;80;21027;-71
2021/04/23 08:57:55;;;;;;;5.33;4.10;;;;;;;9.06;69.33;99895.48;1762613;80;21171;-68
2021/04/23 09:00:23;;;;;;;7.37;3.98;;;;;;;9.13;69.03;99898.03;1733051;82;21208;-68
2021/04/23 09:02:50;;;;;;;6.05;4.70;;;;;;;9.21;69.35;99888.27;1734305;82;21119;-68
2021/04/23 09:05:18;;;;;;;7.15;3.50;;;;;;;9.33;69.30;99891.76;1707818;82;21202;-70
2021/04/23 09:08:04;;;;;;;13.95;4.92;;;;;;;9.47;69.43;99881.56;1733770;81;21149;-69
2021/04/23 09:10:35;;;;;;;10.45;5.15;;;;;;;9.53;69.37;99881.97;1756371;80;21161;-69
2021/04/23 09:13:15;;;;;;;6.90;3.92;;;;;;;9.64;69.05;99889.97;1734829;82;21202;-70
2021/04/23 09:15:47;;;;;;;4.53;4.08;;;;;;;9.73;67.76;99892.30;1755347;81;21026;-67
2021/04/23 09:18:22;;;;;;;8.15;3.70;;;;;;;9.81;66.54;99895.94;1734420;82;21155;-70
2021/04/23 09:21:03;;;;;;;7.12;4.40;;;;;;;9.82;66.30;99893.02;1756694;81;21581;-68
2021/04/23 09:23:31;;;;;;;4.83;4.05;;;;;;;9.82;66.37;99888.98;1784129;80;21607;-70
2021/04/23 09:25:59;;;;;;;5.00;4.28;;;;;;;9.83;66.25;99881.75;1761651;80;21970;-70
2021/04/23 09:28:39;;;;;;;6.50;5.00;;;;;;;9.89;66.24;99886.95;1769753;80;21654;-68
2021/04/23 09:31:33;;;;;;;4.45;3.98;;;;;;;9.93;64.28;99876.53;1731417;81;21177;-71
2021/04/23 09:34:04;;;;;;;12.98;4.87;;;;;;;9.96;63.91;99890.33;1734602;82;21154;-69
2021/04/23 09:36:40;;;;;;;6.85;4.60;;;;;;;10.02;64.31;99879.94;1779149;80;21131;-70
2021/04/23 09:39:22;;;;;;;7.90;3.83;;;;;;;10.14;64.33;99887.13;1762008;80;21148;-69
2021/04/23 09:42:08;;;;;;;6.45;5.10;;;;;;;10.22;63.87;99886.76;1761793;80;21161;-69
2021/04/23 09:44:41;;;;;;;6.40;4.20;;;;;;;10.22;63.63;99892.13;1734071;80;21125;-70
2021/04/23 09:47:18;;;;;;;4.10;3.65;;;;;;;10.27;63.18;99886.84;1748916;80;21168;-68
2021/04/23 09:49:51;;;;;;;5.97;4.05;;;;;;;10.36;62.23;99887.55;1787868;80;21582;-69
2021/04/23 09:52:20;;;;;;;7.50;4.75;;;;;;;10.45;62.10;99888.77;1789658;80;21254;-69
2021/04/23 09:54:56;;;;;;;10.38;4.08;;;;;;;10.46;61.98;99889.59;1787180;80;21128;-70
2021/04/23 09:57:40;;;;;;;4.83;4.33;;;;;;;10.50;62.00;99891.55;1779899;80;21081;-69
2021/04/23 10:00:11;;;;;;;4.92;3.75;;;;;;;10.60;60.92;99897.61;1737003;80;20998;-69
2021/04/23 10:02:39;;;;;;;7.37;3.90;;;;;;;10.71;59.28;99899.95;1785521;80;21597;-70
2021/04/23 10:05:10;;;;;;;6.10;3.77;;;;;;;10.80;58.81;99889.05;1778000;80;21659;-71
2021/04/23 10:07:38;;;;;;;8.13;4.08;;;;;;;10.87;58.05;99895.09;1748846;80;21158;-68
2021/04/23 10:10:12;;;;;;;7.05;4.17;;;;;;;10.97;58.76;99885.83;1716652;82;21570;-71
2021/04/23 10:12:52;;;;;;;5.20;4.30;;;;;;;10.93;58.16;99876.06;1734694;82;21609;-68
2021/04/23 10:15:30;;;;;;;10.93;4.72;;;;;;;10.86;58.28;99875.97;1751051;80;21602;-69
2021/04/23 10:18:11;;;;;;;6.45;3.85;;;;;;;10.82;55.76;99875.66;1755636;80;22201;-67
2021/04/23 10:20:47;;;;;;;9.13;4.17;;;;;;;10.90;55.28;99864.98;1784312;80;21763;-68
2021/04/23 10:23:18;;;;;;;5.20;3.98;;;;;;;10.98;54.95;99848.44;1784241;80;21039;-67
2021/04/23 10:25:46;;;;;;;7.67;4.20;;;;;;;11.06;54.28;99853.38;1782682;80;21193;-68
2021/04/23 10:28:22;;;;;;;7.70;3.47;;;;;;;11.08;54.09;99865.25;1784258;80;21102;-67
2021/04/23 10:30:53;;;;;;;6.87;4.33;;;;;;;11.08;53.57;99866.60;1784323;80;21193;-70
2021/04/23 10:33:25;;;;;;;4.83;3.55;;;;;;;11.12;54.03;99865.85;1784101;80;21043;-69
2021/04/23 10:35:55;;;;;;;6.10;4.22;;;;;;;11.12;52.34;99866.38;1724459;81;21078;-67
2021/04/23 10:38:35;;;;;;;6.40;4.40;;;;;;;11.15;51.82;99867.22;1755268;80;21212;-69
2021/04/23 10:41:08;;;;;;;7.70;4.05;;;;;;;11.20;51.25;99866.76;1784166;80;21169;-70
2021/04/23 10:43:36;;;;;;;6.67;3.05;;;;;;;11.27;50.71;99867.93;1784167;80;21456;-70
2021/04/23 10:46:15;;;;;;;6.60;4.67;;;;;;;11.34;50.03;99853.73;1691176;83;21620;-69
2021/04/23 10:48:44;;;;;;;7.20;4.12;;;;;;;11.38;49.96;99844.90;1673826;84;21255;-69
2021/04/23 10:51:26;;;;;;;7.70;4.90;;;;;;;11.43;48.69;99840.11;1742707;80;21208;-68
2021/04/23 10:54:08;;;;;;;9.10;3.85;;;;;;;11.49;49.66;99837.76;1754604;80;21140;-68
2021/04/23 10:56:38;;;;;;;;;;;;;;;11.57;49.52;99841.87;1767795;80;22152;-67
2021/04/23 10:59:10;;;;;;;5.05;3.27;;;;;;;11.61;48.53;99834.91;1735740;80;20159;-67
2021/04/23 11:01:41;;;;;;;9.53;3.33;;;;;;;11.70;47.89;99842.85;1752059;80;21697;-68
2021/04/23 11:04:17;;;;;;;10.35;3.87;;;;;;;11.84;46.93;99843.29;1758108;80;21601;-68
2021/04/23 11:06:56;;;;;;;7.10;3.65;;;;;;;11.93;47.30;99843.11;1740103;80;21118;-69
2021/04/23 11:09:25;;;;;;;4.33;2.87;;;;;;;12.04;47.32;99846.98;1784364;80;21190;-69
2021/04/23 11:12:13;;;;;;;7.83;3.47;;;;;;;12.11;46.35;99838.16;1751821;80;21161;-67
2021/04/23 11:14:43;;;;;;;3.70;3.12;;;;;;;12.11;46.70;99840.86;1703255;84;21153;-66
2021/04/23 11:17:22;;;;;;;8.78;3.90;;;;;;;12.04;45.53;99844.28;1709541;82;22008;-68
2021/04/23 11:19:51;;;;;;;5.15;3.10;;;;;;;12.00;46.54;99841.00;1680689;83;21192;-65
2021/04/23 11:22:29;;;;;;;9.28;3.95;;;;;;;12.02;46.67;99837.00;1743593;81;21575;-68
2021/04/23 11:25:16;;;;;;;5.40;3.50;;;;;;;12.05;46.93;99845.09;1712808;82;21203;-68
2021/04/23 11:28:05;;;;;;;4.28;3.52;;;;;;;12.05;46.61;99845.91;1781153;80;21162;-65
2021/04/23 11:31:01;;;;;;;4.92;3.45;;;;;;;12.08;46.66;99845.42;1729836;80;21587;-70
2021/04/23 11:33:52;;;;;;;4.60;3.85;;;;;;;12.12;46.48;99831.70;1755003;80;21153;-65
2021/04/23 11:36:30;;;;;;;14.00;4.40;;;;;;;12.15;46.45;99837.92;1784235;80;21057;-66
2021/04/23 11:39:06;;;;;;;6.78;3.35;;;;;;;12.18;46.72;99829.30;1783994;80;21129;-66
2021/04/23 11:41:34;;;;;;;3.00;2.80;;;;;;;12.20;47.08;99841.20;1755495;80;21550;-67
2021/04/23 11:44:06;;;;;;;6.15;4.30;;;;;;;12.21;46.92;99828.00;1752068;80;21437;-68
2021/04/23 11:46:54;;;;;;;6.10;3.65;;;;;;;12.13;46.73;99833.87;1750825;80;21173;-66
2021/04/23 11:49:22;;;;;;;4.25;3.92;;;;;;;12.01;47.22;99840.76;1755553;80;21218;-65
2021/04/23 11:51:52;;;;;;;4.58;3.22;;;;;;;11.93;47.49;99835.84;1755582;80;21146;-67
2021/04/23 11:54:38;;;;;;;4.20;3.47;;;;;;;11.88;47.45;99837.13;1775704;80;21134;-64